Alexander, North Carolina
Current Conditions -  °F | °C
As of 5:10 PM on Sunday 23 Nov 2014 (Local Time) from KAVL Reporting Station
Heavy Rain Heavy Rain  
Wind Chill: 45°   Ceiling: 600
Heat Index: 48°   Visibility: 3mi
Dew Point: 46°   Wind: 6mph
Humidity: 93%   Direction: 180°S
Pressure: 29.84"   Gusts: NA
Location:  35.69°N, 82.66°W
Report Text: KAVL 232210Z 18005KT 3SM +RA BR BKN006 OVC015 09/08 A2984 RMK AO2 LTG DSNT S P0012 T00890078
Loading
Personal Weather Stations






























Interactive Weather Map New forecast layout! Learn more

10-Day Weather Forecast

Advertisements
Track Severe Weather on mobile